MSC Maya — 3FNF8 — position and weather

sailwx.info

Track history (hours):
 
Tides and Currents Weather Stations Pressure Air Temp Water Temp Dewpoint Dewpoint Depression Visibility Wind Speed Wind Dir Waves Ship Positions

MSC Maya

Last reported at 2016-May-03 10:32 UTC. Time now 2016-May-04 00:00 UTC.
Position N 01°14' E 104°00'.

Length 242 m; draft 7.8 m.

Type: Cargo ship. MMSI: 351384000.

Date/timePositionNaut miles runAvg speedWind from/ knotsBaromVisibWave heightAir tempDewpointWater temp
2016-May-03 10:32N 01°14' E 104°00'1211.8
2016-May-03 09:33N 01°12' E 103°49'5 4.8
2016-May-03 08:28N 01°16' E 103°46'0 0.0
2016-May-03 07:31N 01°16' E 103°46'0 0.0
2016-May-03 06:31N 01°16' E 103°46'0 0.1
2016-May-03 05:28N 01°16' E 103°46'0 0.1
2016-May-03 04:31N 01°16' E 103°46'0 0.1
2016-May-03 03:31N 01°16' E 103°46'0 0.0
2016-May-03 02:28N 01°16' E 103°46'0 0.1
2016-May-03 01:33N 01°16' E 103°46'0 0.0
2016-May-03 00:33N 01°16' E 103°46'0 0.0
2016-May-02 23:33N 01°16' E 103°46'0 0.1
2016-May-02 22:33N 01°16' E 103°46'0 0.1
2016-May-02 21:33N 01°16' E 103°46'0 0.1
2016-May-02 20:33N 01°16' E 103°46'0 0.1
2016-May-02 19:33N 01°16' E 103°46'0 0.0
2016-May-02 18:32N 01°16' E 103°46'0 0.1
2016-May-02 17:32N 01°16' E 103°46'0 0.0
2016-May-02 16:31N 01°16' E 103°46'0 0.0
2016-May-02 15:31N 01°16' E 103°46'0 0.1
2016-May-02 14:31N 01°16' E 103°46'0 0.0
2016-May-02 13:33N 01°16' E 103°46'0 0.0
2016-May-02 12:33N 01°16' E 103°46'0 0.0
2016-May-02 11:33N 01°16' E 103°46'0 0.0
2016-May-02 10:31N 01°16' E 103°46'0 0.0
2016-May-02 09:29N 01°16' E 103°46'0 0.0
2016-May-02 08:31N 01°16' E 103°46'0 0.0
2016-May-02 07:30N 01°16' E 103°46'1 1.2
2016-May-02 06:33N 01°15' E 103°46'7 6.8
2016-May-02 05:33N 01°12' E 103°40'0 0.0
2016-May-02 04:21N 01°12' E 103°40'0 0.0
2016-May-02 03:27N 01°12' E 103°40'1 0.9
2016-May-02 02:33N 01°12' E 103°40'8 7.3
2016-May-02 01:32N 01°13' E 103°32'4 3.2
2016-May-02 00:18N 01°15' E 103°28'0 0.0
2016-May-01 23:24N 01°15' E 103°28'0 0.1
2016-May-01 22:24N 01°15' E 103°28'0 0.1
2016-May-01 21:24N 01°15' E 103°28'0 0.0
2016-May-01 18:12N 01°15' E 103°28'5 2.4
2016-May-01 16:17N 01°16' E 103°33'6 0.3
2016-Apr-30 23:32N 01°22' E 103°33'1 0.6
2016-Apr-30 22:19N 01°21' E 103°33'7 8.8
2016-Apr-30 21:33N 01°15' E 103°32'3 2.9
2016-Apr-30 20:33N 01°13' E 103°34'1414.5
2016-Apr-30 19:33N 01°11' E 103°49'1717.2
2016-Apr-30 18:33N 01°16' E 104°05'  
2016-Apr-26 01:33N 01°14' E 104°04'1313.6
2016-Apr-26 00:33N 01°11' E 103°51'7 6.4
2016-Apr-25 23:28N 01°16' E 103°46'0 0.0
2016-Apr-25 22:31N 01°16' E 103°46'0 0.0
2016-Apr-25 21:31N 01°16' E 103°46'0 0.0
2016-Apr-25 20:25N 01°16' E 103°46'0 0.0
2016-Apr-25 19:31N 01°16' E 103°46'0 0.1
2016-Apr-25 18:28N 01°16' E 103°46'0 0.1
2016-Apr-25 17:31N 01°16' E 103°46'0 0.0
2016-Apr-25 16:22N 01°16' E 103°46'0 0.0
2016-Apr-25 15:28N 01°16' E 103°46'0 0.0
2016-Apr-25 14:33N 01°16' E 103°46'0 0.0
2016-Apr-25 13:33N 01°16' E 103°46'0 0.0
2016-Apr-25 12:33N 01°16' E 103°46'0 0.4
2016-Apr-25 11:33N 01°16' E 103°46'8 8.1
2016-Apr-25 10:34N 01°12' E 103°39'4 4.4
2016-Apr-25 09:33N 01°13' E 103°35'7 7.3
2016-Apr-25 08:33N 01°15' E 103°28'2 0.3
2016-Apr-25 02:07N 01°15' E 103°26'1 0.7
2016-Apr-25 00:32N 01°15' E 103°27'8 8.2
2016-Apr-24 23:32N 01°20' E 103°33'0 0.0
2016-Apr-24 07:33N 01°20' E 103°33'4 0.9
2016-Apr-24 03:06N 01°16' E 103°34'0 0.0
2016-Apr-24 01:15N 01°16' E 103°33'0 0.1
2016-Apr-23 23:18N 01°16' E 103°33'0 0.1
2016-Apr-23 22:24N 01°16' E 103°33'0 0.3
2016-Apr-23 21:32N 01°15' E 103°33'6 5.9
2016-Apr-23 20:33N 01°12' E 103°38'9 8.7
2016-Apr-23 19:34N 01°10' E 103°46'9 9.4
2016-Apr-23 18:34N 01°14' E 103°55'1110.7
2016-Apr-23 17:33N 01°17' E 104°05'  
Track history (hours):
 
Tides and Currents Weather Stations Pressure Air Temp Water Temp Dewpoint Dewpoint Depression Visibility Wind Speed Wind Dir Waves Ship Positions

MSC Maya

Last reported at 2016-May-03 10:32 UTC. Time now 2016-May-04 00:00 UTC.
Position N 01°14' E 104°00'.

Length 242 m; draft 7.8 m.

Type: Cargo ship. MMSI: 351384000.

Date/timePositionNaut miles runAvg speedWind from/ knotsBaromVisibWave heightAir tempDewpointWater temp
2016-May-03 10:32N 01°14' E 104°00'1211.8
2016-May-03 09:33N 01°12' E 103°49'5 4.8
2016-May-03 08:28N 01°16' E 103°46'0 0.0
2016-May-03 07:31N 01°16' E 103°46'0 0.0
2016-May-03 06:31N 01°16' E 103°46'0 0.1
2016-May-03 05:28N 01°16' E 103°46'0 0.1
2016-May-03 04:31N 01°16' E 103°46'0 0.1
2016-May-03 03:31N 01°16' E 103°46'0 0.0
2016-May-03 02:28N 01°16' E 103°46'0 0.1
2016-May-03 01:33N 01°16' E 103°46'0 0.0
2016-May-03 00:33N 01°16' E 103°46'0 0.0
2016-May-02 23:33N 01°16' E 103°46'0 0.1
2016-May-02 22:33N 01°16' E 103°46'0 0.1
2016-May-02 21:33N 01°16' E 103°46'0 0.1
2016-May-02 20:33N 01°16' E 103°46'0 0.1
2016-May-02 19:33N 01°16' E 103°46'0 0.0
2016-May-02 18:32N 01°16' E 103°46'0 0.1
2016-May-02 17:32N 01°16' E 103°46'0 0.0
2016-May-02 16:31N 01°16' E 103°46'0 0.0
2016-May-02 15:31N 01°16' E 103°46'0 0.1
2016-May-02 14:31N 01°16' E 103°46'0 0.0
2016-May-02 13:33N 01°16' E 103°46'0 0.0
2016-May-02 12:33N 01°16' E 103°46'0 0.0
2016-May-02 11:33N 01°16' E 103°46'0 0.0
2016-May-02 10:31N 01°16' E 103°46'0 0.0
2016-May-02 09:29N 01°16' E 103°46'0 0.0
2016-May-02 08:31N 01°16' E 103°46'0 0.0
2016-May-02 07:30N 01°16' E 103°46'1 1.2
2016-May-02 06:33N 01°15' E 103°46'7 6.8
2016-May-02 05:33N 01°12' E 103°40'0 0.0
2016-May-02 04:21N 01°12' E 103°40'0 0.0
2016-May-02 03:27N 01°12' E 103°40'1 0.9
2016-May-02 02:33N 01°12' E 103°40'8 7.3
2016-May-02 01:32N 01°13' E 103°32'4 3.2
2016-May-02 00:18N 01°15' E 103°28'0 0.0
2016-May-01 23:24N 01°15' E 103°28'0 0.1
2016-May-01 22:24N 01°15' E 103°28'0 0.1
2016-May-01 21:24N 01°15' E 103°28'0 0.0
2016-May-01 18:12N 01°15' E 103°28'5 2.4
2016-May-01 16:17N 01°16' E 103°33'6 0.3
2016-Apr-30 23:32N 01°22' E 103°33'1 0.6
2016-Apr-30 22:19N 01°21' E 103°33'7 8.8
2016-Apr-30 21:33N 01°15' E 103°32'3 2.9
2016-Apr-30 20:33N 01°13' E 103°34'1414.5
2016-Apr-30 19:33N 01°11' E 103°49'1717.2
2016-Apr-30 18:33N 01°16' E 104°05'  
2016-Apr-26 01:33N 01°14' E 104°04'1313.6
2016-Apr-26 00:33N 01°11' E 103°51'7 6.4
2016-Apr-25 23:28N 01°16' E 103°46'0 0.0
2016-Apr-25 22:31N 01°16' E 103°46'0 0.0
2016-Apr-25 21:31N 01°16' E 103°46'0 0.0
2016-Apr-25 20:25N 01°16' E 103°46'0 0.0
2016-Apr-25 19:31N 01°16' E 103°46'0 0.1
2016-Apr-25 18:28N 01°16' E 103°46'0 0.1
2016-Apr-25 17:31N 01°16' E 103°46'0 0.0
2016-Apr-25 16:22N 01°16' E 103°46'0 0.0
2016-Apr-25 15:28N 01°16' E 103°46'0 0.0
2016-Apr-25 14:33N 01°16' E 103°46'0 0.0
2016-Apr-25 13:33N 01°16' E 103°46'0 0.0
2016-Apr-25 12:33N 01°16' E 103°46'0 0.4
2016-Apr-25 11:33N 01°16' E 103°46'8 8.1
2016-Apr-25 10:34N 01°12' E 103°39'4 4.4
2016-Apr-25 09:33N 01°13' E 103°35'7 7.3
2016-Apr-25 08:33N 01°15' E 103°28'2 0.3
2016-Apr-25 02:07N 01°15' E 103°26'1 0.7
2016-Apr-25 00:32N 01°15' E 103°27'8 8.2
2016-Apr-24 23:32N 01°20' E 103°33'0 0.0
2016-Apr-24 07:33N 01°20' E 103°33'4 0.9
2016-Apr-24 03:06N 01°16' E 103°34'0 0.0
2016-Apr-24 01:15N 01°16' E 103°33'0 0.1
2016-Apr-23 23:18N 01°16' E 103°33'0 0.1
2016-Apr-23 22:24N 01°16' E 103°33'0 0.3
2016-Apr-23 21:32N 01°15' E 103°33'6 5.9
2016-Apr-23 20:33N 01°12' E 103°38'9 8.7
2016-Apr-23 19:34N 01°10' E 103°46'9 9.4
2016-Apr-23 18:34N 01°14' E 103°55'1110.7
2016-Apr-23 17:33N 01°17' E 104°05'  

Dump ship's entire track history